N73A YSSY-YSCB
Flight info
| Callsign | N73A |
|---|---|
| Flight time | N/A |
| Altitude | 20000 |
| Route | WOL H65 LEECE |
| Aircraft | C414/L-SBDFGRY/S |
Departure
| Time | 2026-05-04 11:33 |
|---|---|
| Airport | Sydney Kingsford Smith International Airport (YSSY) |
Arrival
| Time | N/A |
|---|---|
| Airport | Canberra Airport (YSCB) |
| Time | Latitude | Longitude | Altitude | Speed | Heading |
|---|---|---|---|---|---|
| 2026-05-04 10:56 | -33.92830 | 151.17520 | -3 ft | 0 kts | 77° |
| 2026-05-04 11:05 | -33.92831 | 151.17517 | 25 ft | 2 kts | 77° |
| 2026-05-04 11:06 | -33.92834 | 151.17498 | 27 ft | 2 kts | 80° |
| 2026-05-04 11:06 | -33.92836 | 151.17478 | 24 ft | 2 kts | 83° |
| 2026-05-04 11:06 | -33.92838 | 151.17459 | 24 ft | 2 kts | 87° |
| 2026-05-04 11:06 | -33.92838 | 151.17439 | 23 ft | 2 kts | 92° |
| 2026-05-04 11:08 | -33.92802 | 151.17370 | 17 ft | 0 kts | 166° |
| 2026-05-04 11:10 | -33.92811 | 151.17373 | 17 ft | 0 kts | 164° |
| 2026-05-04 11:12 | -33.93001 | 151.17405 | 18 ft | 13 kts | 167° |
| 2026-05-04 11:12 | -33.93091 | 151.17429 | 18 ft | 14 kts | 168° |
| 2026-05-04 11:12 | -33.93197 | 151.17455 | 16 ft | 17 kts | 165° |
| 2026-05-04 11:12 | -33.93282 | 151.17478 | 16 ft | 5 kts | 168° |
| 2026-05-04 11:13 | -33.93300 | 151.17482 | 16 ft | 0 kts | 167° |
| 2026-05-04 11:13 | -33.93325 | 151.17489 | 16 ft | 10 kts | 168° |
| 2026-05-04 11:14 | -33.93372 | 151.17558 | 23 ft | 10 kts | 96° |
| 2026-05-04 11:14 | -33.93401 | 151.17594 | 25 ft | 11 kts | 172° |
| 2026-05-04 11:14 | -33.93550 | 151.17602 | 23 ft | 8 kts | 170° |
| 2026-05-04 11:16 | -33.93801 | 151.17703 | 14 ft | 15 kts | 167° |
| 2026-05-04 11:16 | -33.93870 | 151.17768 | 15 ft | 12 kts | 140° |
| 2026-05-04 11:16 | -33.93960 | 151.17796 | 17 ft | 16 kts | 166° |
| 2026-05-04 11:17 | -33.94004 | 151.17807 | 17 ft | 0 kts | 168° |
| 2026-05-04 11:19 | -33.94005 | 151.17807 | 17 ft | 2 kts | 168° |
| 2026-05-04 11:19 | -33.94073 | 151.17824 | 17 ft | 11 kts | 168° |
| 2026-05-04 11:19 | -33.94148 | 151.17844 | 19 ft | 10 kts | 167° |
| 2026-05-04 11:20 | -33.94246 | 151.17870 | 19 ft | 20 kts | 167° |
| 2026-05-04 11:20 | -33.94399 | 151.17908 | 19 ft | 24 kts | 168° |
| 2026-05-04 11:20 | -33.94546 | 151.17890 | 18 ft | 20 kts | 168° |
| 2026-05-04 11:20 | -33.94671 | 151.17921 | 19 ft | 18 kts | 168° |
| 2026-05-04 11:22 | -33.95050 | 151.18020 | 20 ft | 6 kts | 167° |
| 2026-05-04 11:22 | -33.95115 | 151.18035 | 21 ft | 13 kts | 168° |
| 2026-05-04 11:23 | -33.95197 | 151.18007 | 20 ft | 14 kts | 262° |
| 2026-05-04 11:23 | -33.95216 | 151.17894 | 18 ft | 13 kts | 257° |
| 2026-05-04 11:24 | -33.95219 | 151.17881 | 18 ft | 0 kts | 256° |
| 2026-05-04 11:31 | -33.94771 | 151.17635 | 18 ft | 76 kts | 348° |
| 2026-05-04 11:33 | -33.95271 | 151.14033 | 2504 ft | 103 kts | 240° |
| 2026-05-04 11:33 | -33.95718 | 151.13363 | 2888 ft | 102 kts | 242° |
| 2026-05-04 11:33 | -33.96182 | 151.12646 | 3050 ft | 126 kts | 241° |
| 2026-05-04 11:34 | -33.96754 | 151.11669 | 3050 ft | 153 kts | 242° |
| 2026-05-04 11:34 | -33.97375 | 151.10575 | 3046 ft | 166 kts | 241° |
| 2026-05-04 11:34 | -33.98038 | 151.09394 | 3039 ft | 174 kts | 242° |
| 2026-05-04 11:34 | -33.98802 | 151.08233 | 3040 ft | 184 kts | 223° |
| 2026-05-04 11:35 | -34.00013 | 151.07733 | 3234 ft | 184 kts | 193° |
| 2026-05-04 11:35 | -34.01257 | 151.07539 | 3484 ft | 177 kts | 193° |
| 2026-05-04 11:35 | -34.02463 | 151.07360 | 3724 ft | 172 kts | 193° |
| 2026-05-04 11:35 | -34.03644 | 151.07202 | 3961 ft | 170 kts | 192° |
| 2026-05-04 11:36 | -34.04810 | 151.07055 | 4203 ft | 167 kts | 193° |
| 2026-05-04 11:36 | -34.05959 | 151.06914 | 4450 ft | 166 kts | 192° |
| 2026-05-04 11:36 | -34.07108 | 151.06784 | 4695 ft | 165 kts | 193° |
| 2026-05-04 11:36 | -34.08242 | 151.06664 | 4939 ft | 163 kts | 193° |
| 2026-05-04 11:37 | -34.09400 | 151.06543 | 5019 ft | 174 kts | 193° |
| 2026-05-04 11:37 | -34.10636 | 151.06406 | 5033 ft | 183 kts | 193° |
| 2026-05-04 11:37 | -34.11930 | 151.06258 | 5028 ft | 190 kts | 192° |
| 2026-05-04 11:37 | -34.13262 | 151.06091 | 5034 ft | 194 kts | 193° |
| 2026-05-04 11:38 | -34.14621 | 151.05918 | 5033 ft | 198 kts | 193° |
| 2026-05-04 11:38 | -34.16001 | 151.05738 | 5026 ft | 200 kts | 193° |
| 2026-05-04 11:38 | -34.17384 | 151.05558 | 5025 ft | 199 kts | 192° |
| 2026-05-04 11:38 | -34.18760 | 151.05378 | 5036 ft | 199 kts | 193° |
| 2026-05-04 11:39 | -34.20133 | 151.05204 | 5120 ft | 195 kts | 193° |
| 2026-05-04 11:39 | -34.21447 | 151.05047 | 5359 ft | 186 kts | 193° |